Time;durP1;ratioP1;P1;durP2;ratioP2;P2;SDS_P1;SDS_P2;PMS_P1;PMS_P2;Temp;Humidity;BMP_temperature;BMP_pressure;BME280_temperature;BME280_humidity;BME280_pressure;Samples;Min_cycle;Max_cycle;Signal;HPM_P1;HPM_P2
2022/10/04 00:00:59;;;;;;;12.30;7.50;;;;;;;;;;5050667;28;20498;-69
2022/10/04 00:03:32;;;;;;;17.95;9.02;;;;;;;;;;5050719;28;20056;-69
2022/10/04 00:05:59;;;;;;;19.45;9.30;;;;;;;;;;5050356;28;20116;-69
2022/10/04 00:08:36;;;;;;;17.35;8.10;;;;;;;;;;5047608;28;20118;-69
2022/10/04 00:11:22;;;;;;;19.17;8.90;;;;;;;;;;5050045;28;20110;-69
2022/10/04 00:13:50;;;;;;;15.00;7.07;;;;;;;;;;5043204;28;20407;-69
2022/10/04 00:16:28;;;;;;;20.67;8.82;;;;;;;;;;5044049;28;20502;-69
2022/10/04 00:19:02;;;;;;;18.25;8.20;;;;;;;;;;5043775;28;20041;-69
2022/10/04 00:21:48;;;;;;;15.52;8.20;;;;;;;;;;5043233;28;20045;-69
2022/10/04 00:24:20;;;;;;;17.80;8.98;;;;;;;;;;5042189;28;20040;-69
2022/10/04 00:26:46;;;;;;;20.15;8.60;;;;;;;;;;5045044;28;20049;-70
2022/10/04 00:29:27;;;;;;;19.00;8.48;;;;;;;;;;5043526;28;20386;-69
2022/10/04 00:32:12;;;;;;;18.95;8.55;;;;;;;;;;5042523;28;20056;-69
2022/10/04 00:34:46;;;;;;;14.65;8.48;;;;;;;;;;5027183;28;20087;-69
2022/10/04 00:37:16;;;;;;;17.63;8.88;;;;;;;;;;5048052;28;20053;-69
2022/10/04 00:39:43;;;;;;;14.65;8.52;;;;;;;;;;5043503;28;20037;-69
2022/10/04 00:42:09;;;;;;;14.27;8.30;;;;;;;;;;5045334;28;20525;-69
2022/10/04 00:44:45;;;;;;;14.50;7.93;;;;;;;;;;5054278;28;20186;-69
2022/10/04 00:47:22;;;;;;;19.15;8.93;;;;;;;;;;5047861;28;20048;-69
2022/10/04 00:49:50;;;;;;;14.85;8.15;;;;;;;;;;5054131;28;20045;-69
2022/10/04 00:52:20;;;;;;;16.00;8.77;;;;;;;;;;5051843;28;20041;-70
2022/10/04 00:55:06;;;;;;;20.33;9.18;;;;;;;;;;5053698;28;20048;-69
2022/10/04 00:57:37;;;;;;;16.83;7.43;;;;;;;;;;5053775;28;20041;-68
2022/10/04 01:00:06;;;;;;;19.40;8.75;;;;;;;;;;5054393;28;20045;-69
2022/10/04 01:02:35;;;;;;;15.95;8.07;;;;;;;;;;5053526;28;20045;-69
2022/10/04 01:05:03;;;;;;;19.60;8.80;;;;;;;;;;5051917;28;20049;-69
2022/10/04 01:07:34;;;;;;;19.70;9.27;;;;;;;;;;5052404;28;20048;-69
2022/10/04 01:10:20;;;;;;;21.30;8.52;;;;;;;;;;5051463;28;20047;-68
2022/10/04 01:12:59;;;;;;;16.50;8.45;;;;;;;;;;5049288;28;20049;-69
2022/10/04 01:15:25;;;;;;;21.55;8.85;;;;;;;;;;5043535;28;20051;-69
2022/10/04 01:18:05;;;;;;;15.10;8.70;;;;;;;;;;5052489;28;20045;-68
2022/10/04 01:20:33;;;;;;;15.18;8.10;;;;;;;;;;5052223;28;20045;-69
2022/10/04 01:22:59;;;;;;;20.35;9.00;;;;;;;;;;5052036;28;20080;-69
2022/10/04 01:25:45;;;;;;;17.92;8.50;;;;;;;;;;5053177;28;20041;-69
2022/10/04 01:28:11;;;;;;;13.70;7.50;;;;;;;;;;5052613;28;20132;-69
2022/10/04 01:30:37;;;;;;;16.88;8.57;;;;;;;;;;5051718;28;20453;-68
2022/10/04 01:33:05;;;;;;;21.77;9.90;;;;;;;;;;5052555;28;20107;-69
2022/10/04 01:35:34;;;;;;;19.50;9.68;;;;;;;;;;5053727;28;20503;-69
2022/10/04 01:38:01;;;;;;;17.48;8.98;;;;;;;;;;5052934;28;20048;-69
2022/10/04 01:40:27;;;;;;;20.75;9.68;;;;;;;;;;5052730;28;20044;-69
2022/10/04 01:42:55;;;;;;;20.67;9.85;;;;;;;;;;5050858;28;20103;-68
2022/10/04 01:45:27;;;;;;;18.40;9.45;;;;;;;;;;5049814;28;20102;-69
2022/10/04 01:47:59;;;;;;;19.80;10.00;;;;;;;;;;5053019;28;20048;-68
2022/10/04 01:50:37;;;;;;;18.70;9.48;;;;;;;;;;5050434;28;20045;-69
2022/10/04 01:53:16;;;;;;;19.73;10.05;;;;;;;;;;5052636;28;20132;-69
2022/10/04 01:55:44;;;;;;;19.95;9.00;;;;;;;;;;5049627;28;20048;-69
2022/10/04 01:58:13;;;;;;;20.40;10.07;;;;;;;;;;5052740;28;20098;-69
2022/10/04 02:00:44;;;;;;;16.60;10.10;;;;;;;;;;5054075;28;20407;-69
2022/10/04 02:03:23;;;;;;;17.13;8.93;;;;;;;;;;5033941;28;20045;-69
2022/10/04 02:05:56;;;;;;;14.75;8.35;;;;;;;;;;5051981;28;20127;-69
2022/10/04 02:08:24;;;;;;;14.85;9.00;;;;;;;;;;5050130;28;20049;-69
2022/10/04 02:10:53;;;;;;;17.58;9.95;;;;;;;;;;5050748;28;20441;-69
2022/10/04 02:13:20;;;;;;;23.02;10.93;;;;;;;;;;5050414;28;20586;-69
2022/10/04 02:15:47;;;;;;;19.60;10.50;;;;;;;;;;5050822;28;20045;-69
2022/10/04 02:18:14;;;;;;;20.65;10.45;;;;;;;;;;5050058;28;20052;-69
2022/10/04 02:20:42;;;;;;;20.90;9.32;;;;;;;;;;5052729;28;20474;-69
2022/10/04 02:23:08;;;;;;;18.95;10.32;;;;;;;;;;5050362;28;20071;-69
2022/10/04 02:25:36;;;;;;;17.42;9.40;;;;;;;;;;5050724;28;20179;-69
2022/10/04 02:28:02;;;;;;;18.92;10.02;;;;;;;;;;5052048;28;20040;-69
2022/10/04 02:30:28;;;;;;;20.80;10.25;;;;;;;;;;5051225;28;20057;-69
2022/10/04 02:32:56;;;;;;;21.08;10.52;;;;;;;;;;5065244;28;20057;-69
2022/10/04 02:35:23;;;;;;;20.88;10.55;;;;;;;;;;5052096;28;20402;-68
2022/10/04 02:37:54;;;;;;;16.35;10.35;;;;;;;;;;5051349;28;20056;-69
2022/10/04 02:40:23;;;;;;;21.48;11.57;;;;;;;;;;5050906;28;20048;-69
2022/10/04 02:43:02;;;;;;;22.95;11.20;;;;;;;;;;5051473;28;20571;-69
2022/10/04 02:45:40;;;;;;;19.35;10.95;;;;;;;;;;5040236;28;20037;-69
2022/10/04 02:48:26;;;;;;;19.13;11.02;;;;;;;;;;5050352;28;20045;-69
2022/10/04 02:50:54;;;;;;;18.70;10.65;;;;;;;;;;5032531;28;20095;-69
2022/10/04 02:53:32;;;;;;;20.58;10.93;;;;;;;;;;5031176;28;20052;-68
2022/10/04 02:55:58;;;;;;;22.73;10.27;;;;;;;;;;5048840;28;20048;-69
2022/10/04 02:58:25;;;;;;;16.65;10.50;;;;;;;;;;5029246;28;20041;-69
2022/10/04 03:00:55;;;;;;;19.85;10.18;;;;;;;;;;5049929;28;20415;-69
2022/10/04 03:03:28;;;;;;;19.63;10.60;;;;;;;;;;5051827;28;20041;-69
2022/10/04 03:05:54;;;;;;;22.52;10.95;;;;;;;;;;5051830;28;20091;-69
2022/10/04 03:08:20;;;;;;;20.67;9.77;;;;;;;;;;5048862;28;20045;-69
2022/10/04 03:10:46;;;;;;;18.88;10.32;;;;;;;;;;5050036;28;20045;-69
2022/10/04 03:13:14;;;;;;;17.13;10.15;;;;;;;;;;5050380;28;20053;-69
2022/10/04 03:15:40;;;;;;;23.25;9.93;;;;;;;;;;5047070;28;20107;-69
2022/10/04 03:18:06;;;;;;;20.30;9.50;;;;;;;;;;5027860;28;20055;-68
2022/10/04 03:20:36;;;;;;;18.40;9.75;;;;;;;;;;5052860;28;20045;-69
2022/10/04 03:23:02;;;;;;;16.33;9.15;;;;;;;;;;5034931;28;20072;-69
2022/10/04 03:25:30;;;;;;;20.58;9.98;;;;;;;;;;5049428;28;20040;-69
2022/10/04 03:28:00;;;;;;;19.70;10.18;;;;;;;;;;5030462;28;20479;-69
2022/10/04 03:30:26;;;;;;;21.70;10.17;;;;;;;;;;5052624;28;20116;-69
2022/10/04 03:32:53;;;;;;;19.40;10.55;;;;;;;;;;5050544;28;20303;-69
2022/10/04 03:35:35;;;;;;;16.77;10.23;;;;;;;;;;5051854;28;20098;-69
2022/10/04 03:38:05;;;;;;;21.05;10.07;;;;;;;;;;5046791;28;20049;-69
2022/10/04 03:40:32;;;;;;;20.10;10.63;;;;;;;;;;5050382;28;20041;-69
2022/10/04 03:42:59;;;;;;;22.42;9.98;;;;;;;;;;5050795;28;20045;-69
2022/10/04 03:45:27;;;;;;;16.98;10.10;;;;;;;;;;5070269;28;20068;-69
2022/10/04 03:47:55;;;;;;;20.30;9.50;;;;;;;;;;5050613;28;20494;-69
2022/10/04 03:50:26;;;;;;;21.40;10.98;;;;;;;;;;5051879;28;20055;-69
2022/10/04 03:53:00;;;;;;;16.35;9.40;;;;;;;;;;5054030;28;20077;-69
2022/10/04 03:55:34;;;;;;;19.48;10.60;;;;;;;;;;5054779;28;20063;-69
2022/10/04 03:58:01;;;;;;;18.80;10.40;;;;;;;;;;5043638;28;20053;-68
2022/10/04 04:00:27;;;;;;;24.02;10.50;;;;;;;;;;5021079;28;20138;-69
2022/10/04 04:03:05;;;;;;;20.38;9.98;;;;;;;;;;5054674;28;20119;-69
2022/10/04 04:05:43;;;;;;;17.27;10.13;;;;;;;;;;5053745;28;20041;-68
2022/10/04 04:08:29;;;;;;;17.05;10.95;;;;;;;;;;5048424;28;20042;-69
2022/10/04 04:10:57;;;;;;;20.20;9.60;;;;;;;;;;5047908;28;20451;-68
2022/10/04 04:13:27;;;;;;;19.80;10.57;;;;;;;;;;5051195;28;20049;-69
2022/10/04 04:15:55;;;;;;;22.08;11.18;;;;;;;;;;5052391;28;20098;-69
2022/10/04 04:18:22;;;;;;;22.27;11.73;;;;;;;;;;5051428;28;20048;-68
2022/10/04 04:20:50;;;;;;;26.80;12.05;;;;;;;;;;5050254;28;20041;-69
2022/10/04 04:23:25;;;;;;;18.67;11.38;;;;;;;;;;5052782;28;20131;-69
2022/10/04 04:25:54;;;;;;;22.00;12.52;;;;;;;;;;5053185;28;20045;-68
2022/10/04 04:28:24;;;;;;;21.73;12.95;;;;;;;;;;5033271;28;20506;-69
2022/10/04 04:30:51;;;;;;;18.33;12.18;;;;;;;;;;5054470;28;20135;-69
2022/10/04 04:33:40;;;;;;;20.73;13.55;;;;;;;;;;5049857;28;20048;-69
2022/10/04 04:36:07;;;;;;;26.45;14.45;;;;;;;;;;5051646;28;20110;-69
2022/10/04 04:38:34;;;;;;;24.98;14.00;;;;;;;;;;5052859;28;20463;-69
2022/10/04 04:41:07;;;;;;;25.25;14.80;;;;;;;;;;5053864;28;20410;-69
2022/10/04 04:43:34;;;;;;;22.15;14.65;;;;;;;;;;5054448;28;20052;-69
2022/10/04 04:46:00;;;;;;;30.02;14.85;;;;;;;;;;5052423;28;20347;-69
2022/10/04 04:48:28;;;;;;;22.23;15.68;;;;;;;;;;5051465;28;20060;-69
2022/10/04 04:50:55;;;;;;;22.70;14.68;;;;;;;;;;5052406;28;20119;-69
2022/10/04 04:53:26;;;;;;;25.10;15.75;;;;;;;;;;5052062;28;20526;-69
2022/10/04 04:55:52;;;;;;;;;;;;;;;;;;5050355;28;20069;-68
2022/10/04 04:58:20;;;;;;;23.88;15.90;;;;;;;;;;5048900;28;20026;-69
2022/10/04 05:00:53;;;;;;;24.00;16.35;;;;;;;;;;5053910;28;20071;-69
2022/10/04 05:03:19;;;;;;;25.77;15.77;;;;;;;;;;5068118;28;20122;-68
2022/10/04 05:05:46;;;;;;;22.65;14.15;;;;;;;;;;5048197;28;20049;-69
2022/10/04 05:08:15;;;;;;;22.58;15.10;;;;;;;;;;5051960;28;20037;-69
2022/10/04 05:10:44;;;;;;;30.08;15.63;;;;;;;;;;5052297;28;20045;-69
2022/10/04 05:13:10;;;;;;;21.90;15.95;;;;;;;;;;5052237;28;20036;-69
2022/10/04 05:15:38;;;;;;;24.25;15.38;;;;;;;;;;5068297;28;20044;-69
2022/10/04 05:18:20;;;;;;;28.58;16.08;;;;;;;;;;5048999;28;20045;-69
2022/10/04 05:20:50;;;;;;;25.08;15.43;;;;;;;;;;5042082;28;20099;-68
2022/10/04 05:23:16;;;;;;;25.60;15.77;;;;;;;;;;5049396;28;20371;-68
2022/10/04 05:25:42;;;;;;;25.85;16.42;;;;;;;;;;5054540;28;20398;-69
2022/10/04 05:28:13;;;;;;;28.30;15.23;;;;;;;;;;5050686;28;20506;-69
2022/10/04 05:30:54;;;;;;;23.88;15.93;;;;;;;;;;5052404;28;20061;-69
2022/10/04 05:33:24;;;;;;;25.05;14.95;;;;;;;;;;5049963;28;20127;-69
2022/10/04 05:36:00;;;;;;;24.33;15.60;;;;;;;;;;5052890;28;20119;-69
2022/10/04 05:38:49;;;;;;;21.88;15.40;;;;;;;;;;5048274;28;20081;-69
2022/10/04 05:41:30;;;;;;;22.83;15.20;;;;;;;;;;5006161;28;20058;-69
2022/10/04 05:43:56;;;;;;;21.02;15.27;;;;;;;;;;5006681;28;20062;-69
2022/10/04 05:46:22;;;;;;;24.90;15.13;;;;;;;;;;4992051;28;20141;-68
2022/10/04 05:48:55;;;;;;;23.05;15.00;;;;;;;;;;5010135;28;20495;-69
2022/10/04 05:51:26;;;;;;;23.38;15.32;;;;;;;;;;5006487;28;20049;-69
2022/10/04 05:53:52;;;;;;;20.55;14.65;;;;;;;;;;5006858;28;20081;-69
2022/10/04 05:56:27;;;;;;;26.52;16.67;;;;;;;;;;5009817;28;20069;-68
2022/10/04 05:59:12;;;;;;;25.60;15.88;;;;;;;;;;5000350;28;20110;-69
2022/10/04 06:01:48;;;;;;;21.80;15.15;;;;;;;;;;4998157;28;20134;-69
2022/10/04 06:04:37;;;;;;;22.83;15.30;;;;;;;;;;5008094;28;20075;-69
2022/10/04 06:07:06;;;;;;;27.00;16.77;;;;;;;;;;4998235;28;20073;-69
2022/10/04 06:09:40;;;;;;;28.30;15.60;;;;;;;;;;4991124;28;20098;-69
2022/10/04 06:12:28;;;;;;;23.55;15.02;;;;;;;;;;5020294;28;20049;-69
2022/10/04 06:15:15;;;;;;;23.88;15.48;;;;;;;;;;5013591;28;20054;-69
2022/10/04 06:17:44;;;;;;;24.92;15.55;;;;;;;;;;5020818;28;20495;-69
2022/10/04 06:20:29;;;;;;;23.02;13.77;;;;;;;;;;5051269;28;20060;-69
2022/10/04 06:23:00;;;;;;;25.27;15.05;;;;;;;;;;5048148;28;20099;-68
2022/10/04 06:25:29;;;;;;;23.42;15.43;;;;;;;;;;5051369;28;20037;-68
2022/10/04 06:28:06;;;;;;;26.30;14.88;;;;;;;;;;5052980;28;20509;-68
2022/10/04 06:30:52;;;;;;;24.55;15.15;;;;;;;;;;5041694;28;20534;-68
2022/10/04 06:33:36;;;;;;;21.73;15.48;;;;;;;;;;5052093;28;20136;-69
2022/10/04 06:36:14;;;;;;;25.92;15.45;;;;;;;;;;5049853;28;20049;-69
2022/10/04 06:38:43;;;;;;;26.25;16.27;;;;;;;;;;5047640;28;20052;-68
2022/10/04 06:41:09;;;;;;;22.15;17.23;;;;;;;;;;5032351;28;20041;-69
2022/10/04 06:43:35;;;;;;;24.58;16.13;;;;;;;;;;5059081;28;20060;-69
2022/10/04 06:46:19;;;;;;;24.92;15.82;;;;;;;;;;5051320;28;20053;-69
2022/10/04 06:49:00;;;;;;;21.02;14.40;;;;;;;;;;5043832;28;20075;-69
2022/10/04 06:51:28;;;;;;;25.15;16.77;;;;;;;;;;5052360;28;20391;-69
2022/10/04 06:53:54;;;;;;;24.77;17.13;;;;;;;;;;5052168;28;20056;-69
2022/10/04 06:56:20;;;;;;;23.65;17.27;;;;;;;;;;5042551;28;20049;-69
2022/10/04 06:59:10;;;;;;;24.20;15.98;;;;;;;;;;5051585;28;20060;-68
2022/10/04 07:01:38;;;;;;;20.55;14.70;;;;;;;;;;5047609;28;20052;-69
2022/10/04 07:04:07;;;;;;;25.65;15.57;;;;;;;;;;5033461;28;20041;-69
2022/10/04 07:06:38;;;;;;;21.73;14.32;;;;;;;;;;5047598;28;20622;-69
2022/10/04 07:09:06;;;;;;;19.13;13.23;;;;;;;;;;5050719;28;20076;-70
2022/10/04 07:11:41;;;;;;;18.10;13.43;;;;;;;;;;5049657;28;20083;-69
2022/10/04 07:14:13;;;;;;;21.10;13.75;;;;;;;;;;5032229;28;20064;-70
2022/10/04 07:16:43;;;;;;;21.35;13.15;;;;;;;;;;5048736;28;20079;-68
2022/10/04 07:19:12;;;;;;;23.05;12.60;;;;;;;;;;5051446;28;20049;-68
2022/10/04 07:21:44;;;;;;;18.77;12.10;;;;;;;;;;5051205;28;20041;-68
2022/10/04 07:24:12;;;;;;;18.75;10.88;;;;;;;;;;5051379;28;20037;-69
2022/10/04 07:26:44;;;;;;;18.42;11.00;;;;;;;;;;5050690;28;20126;-68
2022/10/04 07:29:22;;;;;;;17.00;10.50;;;;;;;;;;5041371;28;20124;-69
2022/10/04 07:31:53;;;;;;;16.48;10.20;;;;;;;;;;5050056;28;20457;-70
2022/10/04 07:34:19;;;;;;;;;;;;;;;;;;5049697;28;20053;-69
2022/10/04 07:36:53;;;;;;;14.60;9.65;;;;;;;;;;5050009;28;19926;-69
2022/10/04 07:39:22;;;;;;;15.43;10.32;;;;;;;;;;5033176;28;20048;-69
2022/10/04 07:41:51;;;;;;;18.23;10.25;;;;;;;;;;5042917;28;20073;-70
2022/10/04 07:44:20;;;;;;;16.73;9.25;;;;;;;;;;5043703;28;20487;-71
2022/10/04 07:46:49;;;;;;;20.45;10.57;;;;;;;;;;5051012;28;20056;-69
2022/10/04 07:49:17;;;;;;;18.60;10.80;;;;;;;;;;5041734;28;20964;-69
2022/10/04 07:51:46;;;;;;;18.33;10.68;;;;;;;;;;5052627;28;20048;-69
2022/10/04 07:54:12;;;;;;;19.25;10.65;;;;;;;;;;5051801;28;20048;-68
2022/10/04 07:56:41;;;;;;;18.15;10.80;;;;;;;;;;5031961;28;20047;-69
2022/10/04 07:59:37;;;;;;;17.63;10.73;;;;;;;;;;5029955;28;20037;-69
2022/10/04 08:02:21;;;;;;;18.85;9.68;;;;;;;;;;5007986;28;20046;-69
2022/10/04 08:05:07;;;;;;;19.63;11.75;;;;;;;;;;5000578;28;20489;-69
2022/10/04 08:07:39;;;;;;;21.38;10.73;;;;;;;;;;5017308;28;20487;-69
2022/10/04 08:10:12;;;;;;;17.60;10.52;;;;;;;;;;4996894;28;20496;-69
2022/10/04 08:12:50;;;;;;;20.15;10.45;;;;;;;;;;5007998;28;20061;-69
2022/10/04 08:15:34;;;;;;;14.40;9.60;;;;;;;;;;5009032;28;20066;-69
2022/10/04 08:18:19;;;;;;;18.27;9.88;;;;;;;;;;5008808;28;20042;-69
2022/10/04 08:20:54;;;;;;;14.88;9.18;;;;;;;;;;5006964;28;20064;-69
2022/10/04 08:23:39;;;;;;;18.23;9.40;;;;;;;;;;5008026;28;20037;-68
2022/10/04 08:26:14;;;;;;;16.20;9.10;;;;;;;;;;5006978;28;20540;-69
2022/10/04 08:31:46;;;;;;;18.50;9.43;;;;;;;;;;4996295;28;20042;-68
2022/10/04 08:34:27;;;;;;;14.82;8.93;;;;;;;;;;5010232;28;20046;-69
2022/10/04 08:37:12;;;;;;;16.17;9.13;;;;;;;;;;4993245;28;20050;-68
2022/10/04 08:39:38;;;;;;;19.98;8.85;;;;;;;;;;5052824;28;20450;-68
2022/10/04 08:42:14;;;;;;;17.30;9.48;;;;;;;;;;5022027;28;20053;-69
2022/10/04 08:44:55;;;;;;;17.67;9.13;;;;;;;;;;5053516;28;20095;-69
2022/10/04 08:47:36;;;;;;;21.20;9.00;;;;;;;;;;5049546;28;20107;-69
2022/10/04 08:50:16;;;;;;;16.15;9.07;;;;;;;;;;5048962;28;20115;-68
2022/10/04 08:52:45;;;;;;;14.40;8.27;;;;;;;;;;5047795;28;20049;-68
2022/10/04 08:55:20;;;;;;;16.42;9.20;;;;;;;;;;5043876;28;20037;-69
2022/10/04 08:58:04;;;;;;;16.13;8.23;;;;;;;;;;5053286;28;20053;-69
2022/10/04 09:00:30;;;;;;;14.25;8.07;;;;;;;;;;5035516;28;20094;-69
2022/10/04 09:03:15;;;;;;;13.90;7.75;;;;;;;;;;5066075;28;20044;-69
2022/10/04 09:05:44;;;;;;;17.00;8.18;;;;;;;;;;5050881;28;20132;-69
2022/10/04 09:08:22;;;;;;;19.55;8.05;;;;;;;;;;5052701;28;20044;-69
2022/10/04 09:11:07;;;;;;;15.30;7.85;;;;;;;;;;5048925;28;20048;-68
2022/10/04 09:13:52;;;;;;;14.98;6.72;;;;;;;;;;5047403;28;20056;-69
2022/10/04 09:16:36;;;;;;;14.75;6.20;;;;;;;;;;5049734;28;20037;-69
2022/10/04 09:19:21;;;;;;;13.90;6.05;;;;;;;;;;5051340;28;20048;-69
2022/10/04 09:21:48;;;;;;;15.85;5.82;;;;;;;;;;5053347;28;20402;-68
2022/10/04 09:24:26;;;;;;;12.25;5.65;;;;;;;;;;5047296;28;20098;-69
2022/10/04 09:27:00;;;;;;;12.48;6.25;;;;;;;;;;5052283;28;20105;-68
2022/10/04 09:29:44;;;;;;;13.15;5.88;;;;;;;;;;5047480;28;20068;-69
2022/10/04 09:32:21;;;;;;;12.88;5.80;;;;;;;;;;5028934;28;20095;-69
2022/10/04 09:35:13;;;;;;;12.13;5.75;;;;;;;;;;5047885;28;20065;-68
2022/10/04 09:37:47;;;;;;;13.52;6.05;;;;;;;;;;5050060;28;20142;-68
2022/10/04 09:40:33;;;;;;;12.35;6.47;;;;;;;;;;5067411;28;20143;-69
2022/10/04 09:42:59;;;;;;;12.35;5.88;;;;;;;;;;5050993;28;20491;-68
2022/10/04 09:45:30;;;;;;;12.25;6.03;;;;;;;;;;5050436;28;20448;-68
2022/10/04 09:47:57;;;;;;;;;;;;;;;;;;5051938;28;20521;-68
2022/10/04 09:50:42;;;;;;;13.43;6.97;;;;;;;;;;5050123;28;20382;-68
2022/10/04 09:53:11;;;;;;;12.38;6.10;;;;;;;;;;5043560;28;20098;-68
2022/10/04 09:55:57;;;;;;;14.60;6.53;;;;;;;;;;5049939;28;20045;-69
2022/10/04 09:58:28;;;;;;;12.23;6.15;;;;;;;;;;5037850;28;20055;-68
2022/10/04 10:01:09;;;;;;;13.95;6.80;;;;;;;;;;5045260;28;20045;-73
2022/10/04 10:04:01;;;;;;;14.82;6.47;;;;;;;;;;5031117;28;20053;-70
2022/10/04 10:06:50;;;;;;;15.75;6.00;;;;;;;;;;5049780;28;20495;-68
2022/10/04 10:13:38;;;;;;;14.23;5.80;;;;;;;;;;5032846;28;20076;-69
2022/10/04 10:15:17;;;;;;;13.50;6.40;;;;;;;;;;5048706;28;20080;-69
2022/10/04 10:18:06;;;;;;;11.13;6.10;;;;;;;;;;5048101;28;20098;-70
2022/10/04 10:20:38;;;;;;;12.68;6.57;;;;;;;;;;5024331;28;20074;-70
2022/10/04 10:23:23;;;;;;;16.50;6.95;;;;;;;;;;5026699;28;20042;-69
2022/10/04 10:25:52;;;;;;;14.90;6.90;;;;;;;;;;5047050;28;20052;-69
2022/10/04 10:28:44;;;;;;;14.60;6.40;;;;;;;;;;5050731;28;20132;-69
2022/10/04 10:31:13;;;;;;;13.73;6.55;;;;;;;;;;5016422;28;20057;-69
2022/10/04 10:33:42;;;;;;;14.15;7.00;;;;;;;;;;5068463;28;20055;-68
2022/10/04 10:36:28;;;;;;;14.80;6.78;;;;;;;;;;5049420;28;20036;-69
2022/10/04 10:39:09;;;;;;;13.95;6.07;;;;;;;;;;5034036;28;20053;-70
2022/10/04 10:41:44;;;;;;;13.98;6.47;;;;;;;;;;5036261;28;20424;-68
2022/10/04 10:44:10;;;;;;;13.70;6.05;;;;;;;;;;5023414;28;20044;-69
2022/10/04 10:47:07;;;;;;;13.85;6.47;;;;;;;;;;5038438;28;20060;-69
2022/10/04 10:49:40;;;;;;;13.40;6.32;;;;;;;;;;5027630;28;20142;-69
2022/10/04 10:52:25;;;;;;;14.48;6.05;;;;;;;;;;5051133;28;20064;-70
2022/10/04 10:55:10;;;;;;;13.35;5.70;;;;;;;;;;5033700;28;20124;-68
2022/10/04 10:57:55;;;;;;;13.88;6.35;;;;;;;;;;5051609;28;20056;-69
2022/10/04 11:00:22;;;;;;;14.77;5.97;;;;;;;;;;5052051;28;20048;-68
2022/10/04 11:03:06;;;;;;;13.32;5.65;;;;;;;;;;5049236;28;20075;-69
2022/10/04 11:05:32;;;;;;;11.68;5.63;;;;;;;;;;5052023;28;20049;-69
2022/10/04 11:08:28;;;;;;;12.07;5.13;;;;;;;;;;5033095;28;20053;-69
2022/10/04 11:10:54;;;;;;;13.02;5.15;;;;;;;;;;5033590;28;20144;-69
2022/10/04 11:13:38;;;;;;;12.05;4.88;;;;;;;;;;5067516;28;20076;-69
2022/10/04 11:16:20;;;;;;;13.73;5.70;;;;;;;;;;5071763;28;20043;-69
2022/10/04 11:19:14;;;;;;;10.05;4.82;;;;;;;;;;5072024;28;20083;-69
2022/10/04 11:22:06;;;;;;;11.80;5.47;;;;;;;;;;5069665;28;20048;-69
2022/10/04 11:24:51;;;;;;;11.65;5.53;;;;;;;;;;5054091;28;20103;-69
2022/10/04 11:27:27;;;;;;;11.90;5.32;;;;;;;;;;5051798;28;20045;-70
2022/10/04 11:30:08;;;;;;;11.88;5.40;;;;;;;;;;5033956;28;20111;-69
2022/10/04 11:32:52;;;;;;;14.38;4.95;;;;;;;;;;5060687;28;20139;-69
2022/10/04 11:35:24;;;;;;;10.88;5.20;;;;;;;;;;5034344;28;20048;-69
2022/10/04 11:37:56;;;;;;;12.90;5.47;;;;;;;;;;5051377;28;20093;-69
2022/10/04 11:40:32;;;;;;;9.80;4.85;;;;;;;;;;5050510;28;20045;-68
2022/10/04 11:43:04;;;;;;;10.55;5.30;;;;;;;;;;5063558;28;20156;-69
2022/10/04 11:45:35;;;;;;;12.95;5.22;;;;;;;;;;5071333;28;20343;-69
2022/10/04 11:48:10;;;;;;;12.05;5.70;;;;;;;;;;5071490;28;20525;-70
2022/10/04 11:50:48;;;;;;;9.73;4.95;;;;;;;;;;5049985;28;20060;-69
2022/10/04 11:53:18;;;;;;;13.10;5.68;;;;;;;;;;5051210;28;20049;-69
2022/10/04 11:55:56;;;;;;;11.55;4.88;;;;;;;;;;5051078;28;20088;-69
2022/10/04 11:58:24;;;;;;;11.10;5.05;;;;;;;;;;5050818;28;20048;-69
2022/10/04 12:01:09;;;;;;;13.70;5.18;;;;;;;;;;5067494;28;20048;-70
2022/10/04 12:03:54;;;;;;;11.65;4.45;;;;;;;;;;5071034;28;20040;-70
2022/10/04 12:06:32;;;;;;;11.38;5.00;;;;;;;;;;5035820;28;20044;-69
2022/10/04 12:09:10;;;;;;;13.57;4.30;;;;;;;;;;5034764;28;20042;-69
2022/10/04 12:14:43;;;;;;;9.65;4.20;;;;;;;;;;5053616;28;20076;-69
2022/10/04 12:17:37;;;;;;;9.13;3.83;;;;;;;;;;5053786;28;20046;-69
2022/10/04 12:20:27;;;;;;;12.70;3.60;;;;;;;;;;5063324;28;20068;-70
2022/10/04 12:23:12;;;;;;;13.50;4.15;;;;;;;;;;5012548;28;20130;-69
2022/10/04 12:25:57;;;;;;;9.52;4.00;;;;;;;;;;5001038;28;20053;-69
2022/10/04 12:28:35;;;;;;;12.95;3.95;;;;;;;;;;4991757;28;20077;-68
2022/10/04 12:31:21;;;;;;;12.98;4.22;;;;;;;;;;4970965;28;20054;-70
2022/10/04 12:34:16;;;;;;;13.48;3.90;;;;;;;;;;4991228;28;20046;-68
2022/10/04 12:37:01;;;;;;;10.90;3.97;;;;;;;;;;4990884;28;20488;-69
2022/10/04 12:39:30;;;;;;;13.13;4.40;;;;;;;;;;4974991;28;20045;-68
2022/10/04 12:42:01;;;;;;;11.88;4.28;;;;;;;;;;4989354;28;20042;-69
2022/10/04 12:44:46;;;;;;;10.25;3.80;;;;;;;;;;4990494;28;20042;-69
2022/10/04 12:47:14;;;;;;;8.77;3.60;;;;;;;;;;4992800;28;20057;-68
2022/10/04 12:50:01;;;;;;;9.77;4.28;;;;;;;;;;4990728;28;20505;-69
2022/10/04 12:52:31;;;;;;;10.10;3.67;;;;;;;;;;4991586;28;20054;-69
2022/10/04 12:55:04;;;;;;;9.15;4.32;;;;;;;;;;4991049;28;20042;-68
2022/10/04 12:57:47;;;;;;;11.23;4.55;;;;;;;;;;4992681;28;20050;-69
2022/10/04 13:00:21;;;;;;;10.02;4.65;;;;;;;;;;5030989;28;20065;-68
2022/10/04 13:03:01;;;;;;;11.10;4.40;;;;;;;;;;5053953;28;20080;-70
2022/10/04 13:05:30;;;;;;;10.43;4.40;;;;;;;;;;5059131;28;20120;-69
2022/10/04 13:08:05;;;;;;;11.48;5.13;;;;;;;;;;5033954;28;20049;-68
2022/10/04 13:10:38;;;;;;;11.25;4.90;;;;;;;;;;5016101;28;20045;-69
2022/10/04 13:13:17;;;;;;;16.65;4.88;;;;;;;;;;5033943;28;20080;-68
2022/10/04 13:15:47;;;;;;;14.80;5.07;;;;;;;;;;5036873;28;20126;-69
2022/10/04 13:18:19;;;;;;;14.73;5.28;;;;;;;;;;5023634;28;20565;-69
2022/10/04 13:20:53;;;;;;;12.80;5.70;;;;;;;;;;5049968;28;20095;-69
2022/10/04 13:23:38;;;;;;;12.35;5.05;;;;;;;;;;5053838;28;20048;-68
2022/10/04 13:26:04;;;;;;;13.25;5.68;;;;;;;;;;5053065;28;20049;-69
2022/10/04 13:28:37;;;;;;;12.05;5.88;;;;;;;;;;5033020;28;20048;-69
2022/10/04 13:31:09;;;;;;;10.35;5.32;;;;;;;;;;5067973;28;20491;-69
2022/10/04 13:33:41;;;;;;;11.90;5.47;;;;;;;;;;5052662;28;20056;-69
2022/10/04 13:36:16;;;;;;;8.35;5.10;;;;;;;;;;5030083;28;20049;-70
2022/10/04 13:39:06;;;;;;;10.20;5.68;;;;;;;;;;5052854;28;20053;-68
2022/10/04 13:41:32;;;;;;;14.60;5.20;;;;;;;;;;5046288;28;20049;-69
2022/10/04 13:44:11;;;;;;;11.20;5.22;;;;;;;;;;5042313;28;20064;-69
2022/10/04 13:46:58;;;;;;;8.40;4.65;;;;;;;;;;5034932;28;20486;-70
2022/10/04 13:49:42;;;;;;;9.43;4.53;;;;;;;;;;5028139;28;20053;-68
2022/10/04 13:57:58;;;;;;;13.07;5.82;;;;;;;;;;5055980;28;20291;-69
2022/10/04 14:00:48;;;;;;;10.85;5.13;;;;;;;;;;5052946;28;20098;-69
2022/10/04 14:03:35;;;;;;;12.27;5.72;;;;;;;;;;5010607;28;20089;-70
2022/10/04 14:06:27;;;;;;;11.38;5.60;;;;;;;;;;5003370;28;20046;-69
2022/10/04 14:09:25;;;;;;;13.68;5.63;;;;;;;;;;5008440;28;20058;-70
2022/10/04 14:11:57;;;;;;;10.43;4.88;;;;;;;;;;4932611;29;20063;-69
2022/10/04 14:14:42;;;;;;;12.35;5.40;;;;;;;;;;4929044;29;20052;-70
2022/10/04 14:17:32;;;;;;;10.15;4.80;;;;;;;;;;4942024;29;20051;-69
2022/10/04 14:20:22;;;;;;;10.40;4.25;;;;;;;;;;4930253;29;20051;-70
2022/10/04 14:22:54;;;;;;;10.13;4.80;;;;;;;;;;4935091;29;20604;-69
2022/10/04 14:25:35;;;;;;;14.20;5.22;;;;;;;;;;4914492;29;20055;-70
2022/10/04 14:28:16;;;;;;;11.15;4.72;;;;;;;;;;4915252;29;20429;-79
2022/10/04 14:30:48;;;;;;;12.27;5.07;;;;;;;;;;4898253;29;20426;-70
2022/10/04 14:33:40;;;;;;;9.38;4.80;;;;;;;;;;4916077;29;20043;-69
2022/10/04 14:36:24;;;;;;;13.23;4.95;;;;;;;;;;4902101;29;20506;-70
2022/10/04 14:39:05;;;;;;;10.70;5.10;;;;;;;;;;4916536;29;20058;-70
2022/10/04 14:41:34;;;;;;;11.35;5.30;;;;;;;;;;4944189;29;20078;-69
2022/10/04 14:44:18;;;;;;;11.90;5.20;;;;;;;;;;4922542;29;20044;-70
2022/10/04 14:47:00;;;;;;;14.25;5.07;;;;;;;;;;4959939;28;20153;-71
2022/10/04 14:49:29;;;;;;;10.63;4.75;;;;;;;;;;5042923;28;20045;-70
2022/10/04 14:52:08;;;;;;;11.57;4.93;;;;;;;;;;5038849;28;20037;-70
2022/10/04 14:54:34;;;;;;;13.88;5.18;;;;;;;;;;5034258;28;20063;-70
2022/10/04 14:57:10;;;;;;;11.77;5.10;;;;;;;;;;5051145;28;20061;-69
2022/10/04 14:59:58;;;;;;;13.52;5.50;;;;;;;;;;5051686;28;20336;-70
2022/10/04 15:02:30;;;;;;;11.88;5.50;;;;;;;;;;5047034;28;20045;-70
2022/10/04 15:05:11;;;;;;;12.30;5.47;;;;;;;;;;5061404;28;20037;-69
2022/10/04 15:07:38;;;;;;;13.38;5.55;;;;;;;;;;5032904;28;20049;-70
2022/10/04 15:10:10;;;;;;;11.88;5.60;;;;;;;;;;5050613;28;20514;-69
2022/10/04 15:12:54;;;;;;;13.45;5.93;;;;;;;;;;5060019;28;20048;-70
2022/10/04 15:15:31;;;;;;;12.75;5.85;;;;;;;;;;5066319;28;20124;-69
2022/10/04 15:18:00;;;;;;;11.23;5.35;;;;;;;;;;5025420;28;20076;-69
2022/10/04 15:20:33;;;;;;;14.38;6.25;;;;;;;;;;5048549;28;20049;-69
2022/10/04 15:23:12;;;;;;;13.30;6.47;;;;;;;;;;5064547;28;20777;-69
2022/10/04 15:25:53;;;;;;;14.55;6.18;;;;;;;;;;5064737;28;20064;-68